Time;durP1;ratioP1;P1;durP2;ratioP2;P2;SDS_P1;SDS_P2;PMS_P1;PMS_P2;Temp;Humidity;BMP_temperature;BMP_pressure;BME280_temperature;BME280_humidity;BME280_pressure;Samples;Min_cycle;Max_cycle;Signal;HPM_P1;HPM_P2
2024/01/29 00:02:39;;;;;;;4.60;2.92;;;14.60;67.80;;;;;;4188617;28;20492;-49
2024/01/29 00:05:21;;;;;;;2.78;2.38;;;14.60;67.70;;;;;;4190730;27;20178;-48
2024/01/29 00:08:02;;;;;;;3.47;2.75;;;14.60;67.50;;;;;;4229822;27;20055;-49
2024/01/29 00:10:43;;;;;;;4.07;2.63;;;14.50;67.50;;;;;;4203823;28;20047;-51
2024/01/29 00:13:23;;;;;;;5.60;2.33;;;14.50;67.80;;;;;;4204562;28;20047;-49
2024/01/29 00:16:07;;;;;;;2.58;2.38;;;14.50;67.60;;;;;;4211256;27;20074;-48
2024/01/29 00:18:48;;;;;;;2.47;2.28;;;14.50;67.40;;;;;;4204223;27;20104;-49
2024/01/29 00:21:29;;;;;;;3.47;3.05;;;14.50;67.60;;;;;;4204722;27;20055;-49
2024/01/29 00:24:10;;;;;;;2.92;2.28;;;14.50;67.70;;;;;;4204581;28;20536;-48
2024/01/29 00:26:51;;;;;;;5.95;3.00;;;14.50;68.20;;;;;;4212153;27;20124;-48
2024/01/29 00:29:32;;;;;;;2.60;2.40;;;14.50;68.90;;;;;;4221543;27;20043;-48
2024/01/29 00:32:15;;;;;;;2.95;2.75;;;14.50;69.10;;;;;;4221027;27;20051;-61
2024/01/29 00:34:57;;;;;;;2.92;2.70;;;14.50;69.20;;;;;;4220675;27;20192;-60
2024/01/29 00:37:38;;;;;;;2.60;2.40;;;14.50;69.10;;;;;;4203438;28;20120;-60
2024/01/29 00:40:19;;;;;;;4.90;2.92;;;14.50;69.20;;;;;;4203923;28;20066;-60
2024/01/29 00:43:00;;;;;;;2.83;2.58;;;14.40;69.30;;;;;;4204151;28;20072;-60
2024/01/29 00:45:41;;;;;;;2.40;2.30;;;14.40;69.50;;;;;;4208219;27;20050;-60
2024/01/29 00:48:24;;;;;;;4.15;2.28;;;14.40;69.70;;;;;;4204087;28;20216;-60
2024/01/29 00:51:06;;;;;;;2.58;2.38;;;14.40;69.70;;;;;;4204547;28;20067;-60
2024/01/29 00:53:48;;;;;;;2.95;2.60;;;14.50;69.50;;;;;;4187806;28;20055;-60
2024/01/29 00:56:28;;;;;;;3.38;2.53;;;14.40;69.10;;;;;;4209176;27;20054;-48
2024/01/29 00:59:09;;;;;;;4.45;2.80;;;14.40;69.10;;;;;;4236292;27;20502;-47
2024/01/29 01:01:50;;;;;;;3.55;2.90;;;14.40;69.00;;;;;;4237326;27;20050;-47
2024/01/29 01:04:33;;;;;;;5.07;2.80;;;14.40;69.00;;;;;;4229416;27;20120;-47
2024/01/29 01:07:14;;;;;;;4.10;2.97;;;14.40;68.80;;;;;;4203599;28;20067;-46
2024/01/29 01:09:55;;;;;;;3.38;2.83;;;14.40;68.90;;;;;;4203336;28;20403;-47
2024/01/29 01:12:38;;;;;;;4.22;2.55;;;14.40;69.00;;;;;;4203665;28;20067;-46
2024/01/29 01:15:19;;;;;;;2.58;2.33;;;14.40;71.20;;;;;;4202984;28;20081;-46
2024/01/29 01:18:00;;;;;;;;;;;14.40;71.10;;;;;;4204281;28;20089;-48
2024/01/29 01:20:43;;;;;;;3.77;2.87;;;14.50;71.00;;;;;;4187379;28;19936;-46
2024/01/29 01:23:23;;;;;;;4.72;2.85;;;14.60;71.90;;;;;;4187125;28;20278;-48
2024/01/29 01:26:05;;;;;;;2.90;2.70;;;14.60;71.60;;;;;;4211019;27;20074;-48
2024/01/29 01:28:46;;;;;;;3.47;3.17;;;14.70;71.60;;;;;;4219944;27;20107;-49
2024/01/29 01:31:27;;;;;;;3.20;2.90;;;14.70;71.60;;;;;;4219601;27;20058;-50
2024/01/29 01:34:08;;;;;;;3.90;3.03;;;14.70;71.60;;;;;;4220029;27;20046;-47
2024/01/29 01:36:50;;;;;;;3.65;2.63;;;14.70;71.50;;;;;;4210479;27;20059;-49
2024/01/29 01:39:32;;;;;;;3.72;3.10;;;14.80;71.50;;;;;;4203733;28;20066;-48
2024/01/29 01:42:13;;;;;;;3.53;2.38;;;14.90;71.30;;;;;;4203334;28;20097;-49
2024/01/29 01:44:54;;;;;;;3.10;2.90;;;14.90;71.00;;;;;;4206490;28;20051;-49
2024/01/29 01:47:35;;;;;;;3.00;2.70;;;14.90;70.90;;;;;;4207147;28;20124;-48
2024/01/29 01:50:17;;;;;;;3.17;2.88;;;14.90;70.70;;;;;;4205602;28;20062;-48
2024/01/29 01:52:59;;;;;;;;;;;15.00;70.70;;;;;;4205516;28;20514;-48
2024/01/29 01:55:40;;;;;;;3.95;2.70;;;15.00;70.80;;;;;;4225646;27;19946;-48
2024/01/29 01:58:23;;;;;;;2.60;2.40;;;15.00;71.20;;;;;;4238995;27;20053;-52
2024/01/29 02:01:04;;;;;;;4.07;2.95;;;15.00;70.70;;;;;;4240449;27;20061;-49
2024/01/29 02:03:45;;;;;;;3.15;2.53;;;15.10;70.60;;;;;;4210970;27;20054;-50
2024/01/29 02:06:26;;;;;;;2.80;2.60;;;15.10;70.30;;;;;;4206788;28;20081;-50
2024/01/29 02:09:09;;;;;;;3.00;2.63;;;15.20;70.30;;;;;;4206298;28;20054;-50
2024/01/29 02:11:50;;;;;;;3.22;2.70;;;15.30;70.90;;;;;;4206389;28;20081;-61
2024/01/29 02:14:31;;;;;;;5.32;3.15;;;15.40;69.60;;;;;;4212165;27;20046;-62
2024/01/29 02:17:12;;;;;;;3.20;2.90;;;15.40;69.40;;;;;;4223171;27;20066;-60
2024/01/29 02:19:53;;;;;;;2.83;2.63;;;15.40;69.30;;;;;;4223159;27;20465;-61
2024/01/29 02:22:34;;;;;;;2.95;2.58;;;15.40;69.30;;;;;;4205646;28;20042;-61
2024/01/29 02:25:17;;;;;;;3.50;2.90;;;15.40;69.30;;;;;;4216279;27;20050;-61
2024/01/29 02:27:57;;;;;;;3.13;2.83;;;15.40;69.20;;;;;;4223548;27;20051;-61
2024/01/29 02:30:39;;;;;;;3.08;2.55;;;15.40;69.90;;;;;;4219060;27;20406;-49
2024/01/29 02:33:20;;;;;;;4.20;2.70;;;15.50;69.10;;;;;;4189680;28;20568;-49
2024/01/29 02:36:01;;;;;;;3.58;3.30;;;15.50;69.20;;;;;;4189776;28;20068;-49
2024/01/29 02:38:42;;;;;;;3.08;2.83;;;15.50;68.90;;;;;;4189646;28;20044;-49
2024/01/29 02:41:25;;;;;;;3.10;2.80;;;15.60;68.70;;;;;;4201540;27;20098;-60
2024/01/29 02:44:06;;;;;;;3.40;3.10;;;15.60;68.50;;;;;;4205807;27;20059;-60
2024/01/29 02:46:47;;;;;;;3.35;2.58;;;15.60;68.60;;;;;;4222641;27;20088;-60
2024/01/29 02:49:28;;;;;;;2.97;2.70;;;15.50;68.50;;;;;;4222622;27;20054;-60
2024/01/29 02:52:09;;;;;;;3.67;2.50;;;15.50;68.70;;;;;;4205621;27;20059;-59
2024/01/29 02:54:50;;;;;;;3.70;2.58;;;15.50;68.80;;;;;;4188227;28;20487;-60
2024/01/29 02:57:34;;;;;;;3.40;2.80;;;15.50;69.10;;;;;;4188985;28;20403;-60
2024/01/29 03:00:15;;;;;;;3.20;2.83;;;15.50;69.00;;;;;;4194665;27;20079;-59
2024/01/29 03:02:57;;;;;;;3.30;3.00;;;15.50;69.50;;;;;;4206183;27;20498;-59
2024/01/29 03:05:38;;;;;;;3.55;2.63;;;15.50;68.80;;;;;;4220657;27;20054;-60
2024/01/29 03:08:19;;;;;;;2.80;2.60;;;15.60;69.60;;;;;;4210368;27;20059;-60
2024/01/29 03:11:00;;;;;;;4.20;3.03;;;15.60;68.70;;;;;;4205398;27;20047;-48
2024/01/29 03:13:43;;;;;;;3.80;3.30;;;15.70;68.50;;;;;;4205663;28;20051;-47
2024/01/29 03:16:25;;;;;;;4.25;2.80;;;15.70;68.30;;;;;;4205671;28;20621;-50
2024/01/29 03:19:07;;;;;;;3.05;2.80;;;15.70;68.20;;;;;;4205001;28;20059;-48
2024/01/29 03:21:48;;;;;;;2.65;2.45;;;15.80;68.10;;;;;;4204215;28;20059;-48
2024/01/29 03:24:29;;;;;;;3.55;3.05;;;15.90;68.00;;;;;;4205428;28;20055;-47
2024/01/29 03:27:10;;;;;;;4.43;2.90;;;15.90;67.70;;;;;;4205208;28;20055;-47
2024/01/29 03:29:52;;;;;;;3.30;3.00;;;15.90;67.70;;;;;;4205497;28;20047;-47
2024/01/29 03:32:33;;;;;;;5.20;3.15;;;15.80;67.70;;;;;;4205569;28;20471;-48
2024/01/29 03:35:14;;;;;;;4.95;3.35;;;15.80;67.90;;;;;;4231339;27;20053;-48
2024/01/29 03:37:55;;;;;;;5.15;3.13;;;15.80;68.10;;;;;;4216971;27;20059;-47
2024/01/29 03:40:36;;;;;;;4.28;2.88;;;15.80;68.00;;;;;;4205944;28;20051;-48
2024/01/29 03:43:19;;;;;;;4.50;2.55;;;15.90;68.00;;;;;;4187297;28;20062;-48
2024/01/29 03:46:01;;;;;;;3.28;3.08;;;15.90;67.80;;;;;;4188687;28;20161;-48
2024/01/29 03:48:42;;;;;;;4.80;2.80;;;15.90;67.70;;;;;;4188492;28;20048;-47
2024/01/29 03:51:24;;;;;;;4.10;2.95;;;15.90;67.80;;;;;;4187919;28;20051;-47
2024/01/29 03:54:05;;;;;;;3.83;3.20;;;15.90;68.30;;;;;;4198633;27;20066;-48
2024/01/29 03:56:46;;;;;;;3.22;2.95;;;15.90;67.60;;;;;;4218516;27;20043;-50
2024/01/29 03:59:27;;;;;;;3.90;3.20;;;15.90;67.50;;;;;;4204069;28;20515;-49
2024/01/29 04:02:10;;;;;;;5.30;3.17;;;15.90;67.40;;;;;;4204723;28;20182;-49
2024/01/29 04:04:51;;;;;;;3.22;2.92;;;15.90;67.40;;;;;;4204268;28;20051;-60
2024/01/29 04:07:32;;;;;;;3.33;3.03;;;15.90;67.20;;;;;;4189859;28;20141;-61
2024/01/29 04:10:13;;;;;;;4.35;3.08;;;15.90;67.30;;;;;;4220762;27;20066;-60
2024/01/29 04:12:54;;;;;;;3.20;2.90;;;15.90;67.30;;;;;;4221255;27;20061;-59
2024/01/29 04:15:35;;;;;;;3.28;2.97;;;15.90;67.20;;;;;;4220349;27;20046;-59
2024/01/29 04:18:18;;;;;;;;;;;15.90;67.10;;;;;;4221875;27;20117;-59
2024/01/29 04:20:59;;;;;;;3.47;3.15;;;15.90;67.30;;;;;;4221528;27;20413;-60
2024/01/29 04:23:40;;;;;;;3.13;2.85;;;15.90;67.80;;;;;;4202734;27;20058;-60
2024/01/29 04:26:21;;;;;;;3.53;3.28;;;15.80;67.80;;;;;;4221235;27;20050;-61
2024/01/29 04:29:02;;;;;;;4.00;3.00;;;15.80;67.90;;;;;;4221310;27;20062;-60
2024/01/29 04:31:43;;;;;;;3.00;2.70;;;15.90;67.80;;;;;;4221282;27;20401;-50
2024/01/29 04:34:25;;;;;;;4.13;3.05;;;15.80;67.70;;;;;;4208584;27;20159;-48
2024/01/29 04:37:06;;;;;;;3.30;3.00;;;15.80;67.70;;;;;;4204168;28;20051;-47
2024/01/29 04:39:47;;;;;;;3.78;3.13;;;15.90;67.60;;;;;;4204327;27;20563;-49
2024/01/29 04:42:28;;;;;;;3.60;3.30;;;15.90;67.50;;;;;;4204242;28;20092;-51
2024/01/29 04:45:10;;;;;;;3.20;2.90;;;15.90;67.40;;;;;;4189687;27;20051;-52
2024/01/29 04:47:51;;;;;;;3.35;3.03;;;15.90;67.50;;;;;;4197065;27;20181;-49
2024/01/29 04:50:33;;;;;;;5.07;3.00;;;15.90;67.40;;;;;;4187068;28;20126;-49
2024/01/29 04:53:14;;;;;;;3.78;3.38;;;15.90;67.40;;;;;;4197650;27;20086;-50
2024/01/29 04:55:55;;;;;;;5.35;3.47;;;15.90;67.40;;;;;;4215564;27;20051;-48
2024/01/29 04:58:36;;;;;;;6.45;4.00;;;15.90;67.40;;;;;;4203791;28;20104;-50
2024/01/29 05:01:17;;;;;;;4.90;3.55;;;15.90;67.60;;;;;;4186917;28;20056;-51
2024/01/29 05:03:58;;;;;;;4.50;3.88;;;15.80;67.50;;;;;;4199850;27;20178;-61
2024/01/29 05:06:41;;;;;;;8.43;3.65;;;15.80;68.50;;;;;;4201673;27;20637;-60
2024/01/29 05:09:21;;;;;;;3.20;2.90;;;15.80;67.70;;;;;;4204089;27;20078;-60
2024/01/29 05:12:02;;;;;;;4.90;3.88;;;15.80;67.90;;;;;;4220555;27;20455;-60
2024/01/29 05:14:44;;;;;;;3.80;3.35;;;15.80;67.90;;;;;;4204342;28;20055;-60
2024/01/29 05:17:25;;;;;;;6.85;3.35;;;16.00;67.80;;;;;;4187409;28;20812;-60
2024/01/29 05:20:08;;;;;;;3.80;3.50;;;16.00;67.50;;;;;;4187445;28;20175;-60
2024/01/29 05:22:51;;;;;;;3.95;3.47;;;16.10;67.10;;;;;;4194652;27;20070;-60
2024/01/29 05:25:33;;;;;;;4.00;3.42;;;16.10;66.80;;;;;;4209142;27;20086;-60
2024/01/29 05:28:14;;;;;;;3.42;3.22;;;16.20;66.70;;;;;;4187212;27;20074;-60
2024/01/29 05:30:55;;;;;;;4.90;3.33;;;16.10;66.60;;;;;;4187977;27;20055;-60
2024/01/29 05:33:36;;;;;;;3.45;3.15;;;16.20;66.50;;;;;;4225569;27;20066;-60
2024/01/29 05:36:16;;;;;;;4.90;3.60;;;16.20;66.40;;;;;;4224648;27;20059;-60
2024/01/29 05:38:59;;;;;;;4.35;3.83;;;16.30;66.40;;;;;;4220381;27;20046;-60
2024/01/29 05:41:40;;;;;;;4.57;3.60;;;16.30;66.40;;;;;;4219567;27;20054;-60
2024/01/29 05:44:21;;;;;;;5.28;3.67;;;16.40;66.00;;;;;;4220457;27;20059;-49
2024/01/29 05:47:02;;;;;;;4.05;3.70;;;16.50;65.80;;;;;;4219787;27;20054;-50
2024/01/29 05:49:43;;;;;;;3.83;3.20;;;16.50;65.70;;;;;;4203371;28;20093;-48
2024/01/29 05:52:24;;;;;;;4.35;3.00;;;16.50;65.50;;;;;;4203534;28;20186;-49
2024/01/29 05:55:08;;;;;;;3.75;3.30;;;16.40;65.60;;;;;;4203634;28;20104;-48
2024/01/29 05:57:49;;;;;;;4.20;3.50;;;16.40;65.70;;;;;;4203269;28;20047;-49
2024/01/29 06:00:31;;;;;;;4.32;3.33;;;16.40;65.70;;;;;;4203185;28;20060;-48
2024/01/29 06:03:12;;;;;;;3.80;3.50;;;16.40;65.60;;;;;;4203474;28;20494;-49
2024/01/29 06:05:53;;;;;;;4.72;3.58;;;16.40;65.60;;;;;;4202430;28;20128;-47
2024/01/29 06:08:35;;;;;;;4.10;3.70;;;16.50;65.70;;;;;;4202694;28;20047;-49
2024/01/29 06:11:17;;;;;;;4.50;3.70;;;16.50;65.60;;;;;;4201970;28;20047;-48
2024/01/29 06:13:58;;;;;;;4.55;3.50;;;16.50;65.40;;;;;;4203341;28;20110;-49
2024/01/29 06:16:39;;;;;;;4.38;3.67;;;16.50;65.40;;;;;;4203382;28;20133;-48
2024/01/29 06:19:20;;;;;;;4.93;3.60;;;16.50;65.60;;;;;;4186221;28;20117;-47
2024/01/29 06:22:01;;;;;;;4.18;3.75;;;16.50;65.80;;;;;;4202974;28;20055;-48
2024/01/29 06:24:42;;;;;;;5.03;3.33;;;16.60;65.50;;;;;;4202753;28;20092;-47
2024/01/29 06:27:25;;;;;;;7.05;3.85;;;16.60;65.30;;;;;;4202817;28;20486;-50
2024/01/29 06:30:07;;;;;;;4.72;3.75;;;16.60;65.00;;;;;;4205106;28;20058;-47
2024/01/29 06:32:49;;;;;;;3.55;3.00;;;16.60;64.80;;;;;;4205985;28;20407;-60
2024/01/29 06:35:30;;;;;;;4.78;3.85;;;16.50;65.00;;;;;;4206329;28;20077;-60
2024/01/29 06:38:11;;;;;;;3.85;3.47;;;16.50;65.20;;;;;;4214720;27;20153;-59
2024/01/29 06:40:51;;;;;;;4.57;3.65;;;16.50;65.50;;;;;;4209617;27;20402;-48
2024/01/29 06:43:34;;;;;;;3.92;3.55;;;16.60;65.50;;;;;;4217587;27;20505;-48
2024/01/29 06:46:16;;;;;;;4.30;3.90;;;16.60;65.10;;;;;;4199133;28;20145;-50
2024/01/29 06:48:57;;;;;;;4.03;3.63;;;16.60;65.00;;;;;;4205871;28;20498;-51
2024/01/29 06:51:38;;;;;;;4.15;3.70;;;16.60;65.00;;;;;;4205858;28;20144;-47
2024/01/29 06:54:19;;;;;;;3.47;3.22;;;16.50;65.10;;;;;;4204705;28;20617;-48
2024/01/29 06:57:00;;;;;;;5.00;4.22;;;16.50;65.30;;;;;;4192595;28;20099;-47
2024/01/29 06:59:42;;;;;;;4.00;3.70;;;16.50;65.40;;;;;;4188883;28;20072;-48
2024/01/29 07:02:23;;;;;;;5.88;3.53;;;16.50;65.50;;;;;;4204906;28;20058;-47
2024/01/29 07:05:05;;;;;;;5.40;3.95;;;16.50;65.80;;;;;;4208599;27;20047;-48
2024/01/29 07:07:45;;;;;;;6.95;4.82;;;16.50;65.70;;;;;;4210541;27;20080;-49
2024/01/29 07:10:26;;;;;;;7.88;4.22;;;16.40;65.80;;;;;;4200881;27;20047;-50
2024/01/29 07:13:07;;;;;;;5.55;3.95;;;16.30;66.10;;;;;;4189015;28;20066;-50
2024/01/29 07:15:50;;;;;;;5.35;4.22;;;16.40;66.20;;;;;;4221942;27;20047;-59
2024/01/29 07:18:31;;;;;;;4.15;3.72;;;16.40;66.00;;;;;;4194615;28;20055;-60
2024/01/29 07:21:12;;;;;;;4.75;4.25;;;16.40;65.80;;;;;;4205136;27;20059;-58
2024/01/29 07:23:53;;;;;;;7.18;4.72;;;16.50;65.90;;;;;;4204613;27;20059;-58
2024/01/29 07:26:34;;;;;;;7.15;4.90;;;16.50;65.40;;;;;;4187538;27;20067;-60
2024/01/29 07:29:15;;;;;;;5.80;4.65;;;16.50;65.10;;;;;;4195539;27;20177;-58
2024/01/29 07:31:58;;;;;;;5.40;4.63;;;16.50;64.60;;;;;;4187015;28;20067;-58
2024/01/29 07:34:39;;;;;;;5.97;5.13;;;16.50;63.00;;;;;;4188251;28;20081;-47
2024/01/29 07:37:20;;;;;;;5.60;4.60;;;16.40;62.80;;;;;;4189672;27;20078;-49
2024/01/29 07:40:03;;;;;;;6.88;4.25;;;16.40;62.80;;;;;;4189809;27;20198;-49
2024/01/29 07:42:44;;;;;;;5.07;4.13;;;16.30;62.90;;;;;;4212748;27;20134;-51
2024/01/29 07:45:25;;;;;;;5.25;4.25;;;16.20;63.00;;;;;;4219692;27;20042;-58
2024/01/29 07:48:09;;;;;;;4.00;3.60;;;16.20;63.40;;;;;;4219588;27;20903;-58
2024/01/29 07:50:51;;;;;;;4.18;3.58;;;16.10;63.20;;;;;;4219238;27;20048;-58
2024/01/29 07:53:32;;;;;;;4.57;4.15;;;16.20;63.10;;;;;;4213717;28;20150;-58
2024/01/29 07:56:13;;;;;;;4.55;4.15;;;16.20;62.90;;;;;;4220536;27;20081;-58
2024/01/29 07:58:54;;;;;;;4.03;3.60;;;16.10;62.70;;;;;;4219244;27;20049;-48
2024/01/29 08:01:35;;;;;;;4.10;3.80;;;16.10;62.50;;;;;;4204071;28;20062;-47
2024/01/29 08:04:18;;;;;;;4.57;4.18;;;16.10;63.40;;;;;;4212693;27;20514;-48
2024/01/29 08:06:59;;;;;;;6.40;4.10;;;16.10;62.60;;;;;;4214993;27;20055;-49
2024/01/29 08:09:40;;;;;;;;;;;16.10;62.50;;;;;;4204933;28;20441;-48
2024/01/29 08:12:21;;;;;;;7.35;4.47;;;16.10;62.60;;;;;;4209917;27;19931;-58
2024/01/29 08:15:03;;;;;;;7.32;4.40;;;16.10;62.90;;;;;;4220108;27;20062;-58
2024/01/29 08:17:44;;;;;;;4.60;4.20;;;16.20;62.60;;;;;;4203971;28;20125;-60
2024/01/29 08:20:27;;;;;;;6.15;4.70;;;16.20;62.30;;;;;;4220162;27;20047;-60
2024/01/29 08:23:09;;;;;;;5.32;4.07;;;16.30;62.10;;;;;;4231258;27;20059;-48
2024/01/29 08:25:50;;;;;;;4.85;4.38;;;16.30;61.70;;;;;;4211103;27;20154;-48
2024/01/29 08:28:31;;;;;;;4.57;3.90;;;16.30;62.10;;;;;;4201942;27;20050;-49
2024/01/29 08:31:11;;;;;;;5.53;4.97;;;16.30;62.30;;;;;;4188529;28;20137;-49
2024/01/29 08:33:53;;;;;;;5.68;4.90;;;16.40;61.70;;;;;;4187400;27;20162;-48
2024/01/29 08:36:35;;;;;;;;;;;16.40;61.40;;;;;;4196954;27;20096;-49
2024/01/29 08:39:17;;;;;;;5.90;4.38;;;16.40;62.20;;;;;;4220962;27;19927;-49
2024/01/29 08:41:58;;;;;;;7.95;4.50;;;16.40;62.40;;;;;;4220761;27;20120;-49
2024/01/29 08:44:39;;;;;;;5.75;5.25;;;16.50;61.80;;;;;;4220911;27;20193;-49
2024/01/29 08:47:20;;;;;;;5.35;4.68;;;16.60;61.50;;;;;;4220719;27;20399;-49
2024/01/29 08:50:01;;;;;;;5.65;4.30;;;16.60;61.20;;;;;;4216073;27;20510;-49
2024/01/29 08:52:44;;;;;;;7.72;5.10;;;16.70;61.00;;;;;;4204945;27;20047;-49
2024/01/29 08:55:25;;;;;;;8.82;5.72;;;16.80;60.90;;;;;;4209023;28;20067;-61
2024/01/29 08:58:07;;;;;;;5.60;5.10;;;16.80;60.70;;;;;;4208912;28;20066;-61
2024/01/29 09:00:53;;;;;;;6.18;4.97;;;16.80;60.50;;;;;;4209149;28;20047;-59
2024/01/29 09:03:35;;;;;;;5.65;4.85;;;16.80;60.60;;;;;;4209037;28;20543;-60
2024/01/29 09:06:17;;;;;;;6.43;4.97;;;16.80;60.80;;;;;;4227002;27;20050;-58
2024/01/29 09:08:59;;;;;;;6.18;4.85;;;16.80;60.20;;;;;;4241329;27;20119;-58
2024/01/29 09:11:41;;;;;;;4.95;4.47;;;16.90;59.90;;;;;;4220871;27;20101;-58
2024/01/29 09:14:24;;;;;;;5.82;5.13;;;16.90;59.70;;;;;;4208141;28;20158;-60
2024/01/29 09:17:05;;;;;;;6.90;5.10;;;16.90;59.40;;;;;;4208468;28;20106;-60
2024/01/29 09:19:47;;;;;;;5.00;4.60;;;16.80;59.40;;;;;;4195660;28;20055;-58
2024/01/29 09:22:27;;;;;;;6.15;5.13;;;16.90;60.10;;;;;;4217631;28;20128;-48
2024/01/29 09:25:10;;;;;;;5.82;4.80;;;16.80;60.00;;;;;;4219529;28;20180;-53
2024/01/29 09:27:51;;;;;;;6.55;4.97;;;16.80;59.80;;;;;;4216995;28;20059;-49
2024/01/29 09:30:32;;;;;;;5.63;5.18;;;16.80;59.80;;;;;;4225222;27;20054;-49
2024/01/29 09:33:13;;;;;;;5.93;5.03;;;16.80;59.70;;;;;;4224009;27;20509;-51
2024/01/29 09:35:58;;;;;;;7.25;5.40;;;16.80;59.70;;;;;;4223569;27;20046;-53
2024/01/29 09:38:39;;;;;;;6.05;5.05;;;16.70;59.70;;;;;;4208719;28;20054;-53
2024/01/29 09:41:21;;;;;;;6.18;5.38;;;16.70;59.60;;;;;;4222179;27;20160;-49
2024/01/29 09:44:06;;;;;;;6.15;5.55;;;16.60;59.50;;;;;;4218445;27;20108;-50
2024/01/29 09:46:49;;;;;;;5.63;5.03;;;16.50;59.80;;;;;;4208636;28;20075;-52
2024/01/29 09:49:30;;;;;;;8.57;5.50;;;16.40;60.30;;;;;;4208592;28;20047;-52
2024/01/29 09:52:13;;;;;;;6.30;5.35;;;16.40;60.80;;;;;;4205191;28;20059;-57
2024/01/29 09:54:56;;;;;;;6.65;5.85;;;16.30;61.40;;;;;;4212167;28;20059;-57
2024/01/29 09:57:39;;;;;;;6.55;5.93;;;16.40;61.60;;;;;;4206984;27;20209;-57
2024/01/29 10:00:20;;;;;;;6.35;5.75;;;16.50;61.40;;;;;;4214249;28;20078;-59
2024/01/29 10:03:04;;;;;;;9.75;5.90;;;16.40;60.90;;;;;;4221732;28;20414;-53
2024/01/29 10:05:46;;;;;;;6.65;5.72;;;16.50;60.80;;;;;;4209451;28;20124;-53
2024/01/29 10:08:29;;;;;;;7.43;5.45;;;16.40;60.90;;;;;;4210691;28;20043;-53
2024/01/29 10:11:11;;;;;;;7.03;5.78;;;16.40;60.70;;;;;;4213059;27;20143;-58
2024/01/29 10:13:59;;;;;;;;;;;16.30;61.00;;;;;;4221494;27;20180;-58
2024/01/29 10:16:40;;;;;;;6.75;5.50;;;16.40;61.60;;;;;;4218092;27;19927;-59
2024/01/29 10:19:21;;;;;;;7.75;5.65;;;16.40;61.80;;;;;;4210206;28;20193;-57
2024/01/29 10:22:02;;;;;;;6.72;5.75;;;16.40;61.40;;;;;;4211216;28;20177;-48
2024/01/29 10:24:43;;;;;;;6.97;6.20;;;16.40;61.40;;;;;;4211199;28;20096;-52
2024/01/29 10:27:24;;;;;;;;;;;16.40;61.90;;;;;;4211458;28;20054;-51
2024/01/29 10:30:08;;;;;;;7.18;5.80;;;16.40;61.80;;;;;;4220357;27;19931;-58
2024/01/29 10:32:49;;;;;;;8.30;6.32;;;16.30;62.10;;;;;;4227280;27;20061;-50
2024/01/29 10:35:30;;;;;;;6.35;5.78;;;16.30;61.50;;;;;;4226627;27;20128;-52
2024/01/29 10:38:15;;;;;;;6.88;5.60;;;16.30;61.30;;;;;;4227881;28;20058;-49
2024/01/29 10:41:00;;;;;;;8.38;6.75;;;16.30;61.30;;;;;;4226211;28;20050;-50
2024/01/29 10:43:47;;;;;;;8.25;6.65;;;16.30;61.30;;;;;;4210839;28;20419;-49
2024/01/29 10:46:34;;;;;;;7.65;6.80;;;16.30;61.30;;;;;;4221092;27;20050;-50
2024/01/29 10:49:16;;;;;;;7.00;6.30;;;16.30;61.00;;;;;;4214951;28;20132;-53
2024/01/29 10:51:59;;;;;;;9.23;6.07;;;16.30;60.80;;;;;;4224533;27;20204;-51
2024/01/29 10:54:41;;;;;;;9.23;5.55;;;16.30;61.30;;;;;;4210601;28;20055;-49
2024/01/29 10:57:24;;;;;;;9.60;6.38;;;16.40;62.60;;;;;;4215932;27;20171;-60
2024/01/29 11:00:08;;;;;;;7.65;5.97;;;16.50;62.70;;;;;;4215100;28;20050;-58
2024/01/29 11:02:51;;;;;;;8.80;6.95;;;16.50;62.10;;;;;;4214751;27;20054;-61
2024/01/29 11:05:33;;;;;;;6.78;6.00;;;16.60;61.50;;;;;;4222102;27;20082;-57
2024/01/29 11:08:24;;;;;;;7.95;6.97;;;16.60;62.10;;;;;;4227604;27;20059;-57
2024/01/29 11:11:10;;;;;;;10.55;6.90;;;16.60;60.80;;;;;;4225166;27;20221;-57
2024/01/29 11:13:52;;;;;;;9.35;7.00;;;16.50;60.40;;;;;;4212780;28;20059;-50
2024/01/29 11:16:33;;;;;;;8.52;6.50;;;16.50;60.40;;;;;;4211388;28;20513;-52
2024/01/29 11:19:16;;;;;;;9.45;7.35;;;16.40;60.40;;;;;;4210838;28;20050;-57
2024/01/29 11:21:59;;;;;;;9.48;6.75;;;16.40;60.30;;;;;;4210392;28;20102;-57
2024/01/29 11:24:41;;;;;;;8.48;6.55;;;16.40;60.30;;;;;;4210564;28;20062;-57
2024/01/29 11:27:22;;;;;;;;;;;16.30;60.20;;;;;;4224770;27;20051;-57
2024/01/29 11:30:12;;;;;;;7.57;6.40;;;16.20;60.20;;;;;;4210892;28;20457;-57
2024/01/29 11:32:55;;;;;;;9.00;7.38;;;16.20;60.10;;;;;;4218184;27;20074;-59
2024/01/29 11:35:37;;;;;;;10.35;7.35;;;16.20;59.90;;;;;;4224974;27;20236;-57
2024/01/29 11:38:24;;;;;;;10.05;6.82;;;16.20;59.60;;;;;;4220170;27;20082;-57
2024/01/29 11:41:05;;;;;;;8.18;5.72;;;16.20;59.50;;;;;;4224003;27;20054;-57
2024/01/29 11:43:48;;;;;;;10.10;7.18;;;16.20;59.40;;;;;;4225180;28;20233;-57
2024/01/29 11:46:29;;;;;;;8.88;6.53;;;16.20;59.40;;;;;;4226566;27;20050;-57
2024/01/29 11:49:10;;;;;;;8.40;6.70;;;16.10;59.50;;;;;;4209067;28;20173;-56
2024/01/29 11:51:54;;;;;;;11.52;7.60;;;16.00;59.60;;;;;;4212399;28;20055;-57
2024/01/29 11:54:34;;;;;;;11.95;7.68;;;16.00;59.70;;;;;;4209852;28;20051;-58
2024/01/29 11:57:15;;;;;;;10.05;7.75;;;16.00;59.80;;;;;;4209518;28;20101;-57
2024/01/29 11:59:56;;;;;;;9.27;7.45;;;16.00;60.20;;;;;;4209192;28;20186;-57
2024/01/29 12:02:37;;;;;;;11.20;6.75;;;16.00;61.30;;;;;;4209170;28;20178;-58
2024/01/29 12:05:19;;;;;;;11.82;7.72;;;16.00;60.50;;;;;;4208810;28;20112;-57
2024/01/29 12:08:02;;;;;;;9.85;6.75;;;16.00;60.60;;;;;;4208979;28;20059;-57
2024/01/29 12:10:44;;;;;;;9.23;7.60;;;16.00;60.70;;;;;;4209738;28;20113;-58
2024/01/29 12:13:25;;;;;;;11.10;7.15;;;15.90;60.90;;;;;;4216494;27;20042;-57
2024/01/29 12:16:07;;;;;;;9.35;7.60;;;16.00;61.40;;;;;;4209807;28;20051;-57
2024/01/29 12:18:49;;;;;;;11.80;7.57;;;16.00;61.80;;;;;;4199954;27;20058;-57
2024/01/29 12:21:30;;;;;;;12.13;7.63;;;16.10;61.30;;;;;;4209237;27;20055;-57
2024/01/29 12:24:13;;;;;;;10.45;7.70;;;16.10;61.20;;;;;;4209104;27;20508;-53
2024/01/29 12:26:54;;;;;;;10.02;8.27;;;16.20;61.10;;;;;;4207047;28;20051;-51
2024/01/29 12:29:36;;;;;;;11.27;8.05;;;16.20;60.70;;;;;;4196080;28;20051;-57
2024/01/29 12:32:20;;;;;;;13.88;7.40;;;16.20;60.50;;;;;;4192272;28;20067;-59
2024/01/29 12:35:02;;;;;;;12.75;7.70;;;16.20;60.60;;;;;;4192623;28;20111;-57
2024/01/29 12:37:43;;;;;;;11.02;8.27;;;16.30;60.40;;;;;;4198698;28;20050;-57
2024/01/29 12:40:26;;;;;;;11.80;8.50;;;16.30;60.30;;;;;;4207368;28;20067;-57
2024/01/29 12:43:09;;;;;;;8.75;7.57;;;16.30;60.30;;;;;;4201853;28;20270;-49
2024/01/29 12:45:50;;;;;;;11.30;7.95;;;16.30;60.30;;;;;;4192019;28;20059;-59
2024/01/29 12:48:31;;;;;;;;;;;16.20;60.30;;;;;;4192357;28;20190;-50
2024/01/29 12:51:15;;;;;;;12.18;8.00;;;16.20;60.50;;;;;;4196174;28;19931;-49
2024/01/29 12:53:57;;;;;;;12.80;8.40;;;16.30;60.50;;;;;;4196532;27;20047;-56
2024/01/29 12:56:39;;;;;;;13.85;9.63;;;16.30;60.50;;;;;;4195649;27;20117;-58
2024/01/29 12:59:20;;;;;;;15.45;8.85;;;16.30;60.30;;;;;;4192047;28;20055;-58
2024/01/29 13:02:01;;;;;;;16.52;9.20;;;16.30;60.30;;;;;;4193171;28;20510;-59
2024/01/29 13:04:42;;;;;;;15.52;9.32;;;16.30;60.50;;;;;;4191882;28;20448;-59
2024/01/29 13:07:25;;;;;;;15.48;8.88;;;16.20;60.80;;;;;;4191946;28;20056;-58
2024/01/29 13:10:06;;;;;;;17.00;9.50;;;16.20;61.10;;;;;;4201474;28;20418;-58
2024/01/29 13:12:48;;;;;;;15.18;9.55;;;16.20;61.40;;;;;;4205709;28;20186;-50
2024/01/29 13:15:30;;;;;;;17.50;9.45;;;16.20;61.40;;;;;;4204944;28;20055;-50
2024/01/29 13:18:10;;;;;;;16.77;9.55;;;16.30;61.40;;;;;;4208664;28;20066;-52
2024/01/29 13:20:51;;;;;;;20.08;9.85;;;16.30;61.40;;;;;;4192066;28;20125;-50
2024/01/29 13:23:32;;;;;;;19.58;9.10;;;16.30;61.60;;;;;;4192117;28;20059;-50
2024/01/29 13:26:13;;;;;;;17.23;9.23;;;16.20;61.80;;;;;;4192565;28;20060;-49
2024/01/29 13:28:57;;;;;;;16.88;9.77;;;16.20;61.90;;;;;;4223629;27;20280;-49
2024/01/29 13:31:40;;;;;;;17.20;9.20;;;16.20;62.30;;;;;;4225551;28;20197;-49
2024/01/29 13:34:21;;;;;;;18.20;10.07;;;16.20;62.50;;;;;;4225317;28;20050;-50
2024/01/29 13:37:02;;;;;;;20.00;10.40;;;16.20;62.60;;;;;;4219849;28;20054;-57
2024/01/29 13:39:44;;;;;;;19.45;10.55;;;16.30;62.80;;;;;;4211367;28;20178;-58
2024/01/29 13:42:25;;;;;;;15.82;9.85;;;16.30;62.70;;;;;;4219204;27;20120;-57
2024/01/29 13:45:08;;;;;;;15.63;8.68;;;16.30;62.60;;;;;;4216971;27;20050;-57
2024/01/29 13:47:50;;;;;;;13.48;9.30;;;16.30;62.50;;;;;;4215471;28;20059;-58
2024/01/29 13:50:31;;;;;;;11.48;8.35;;;16.30;62.40;;;;;;4211137;28;20088;-58
2024/01/29 13:53:12;;;;;;;15.45;9.05;;;16.30;62.40;;;;;;4211107;28;20079;-58
2024/01/29 13:55:53;;;;;;;17.25;9.23;;;16.30;62.60;;;;;;4224450;27;20144;-58
2024/01/29 13:58:34;;;;;;;15.10;8.90;;;16.20;62.70;;;;;;4226639;28;20047;-58
2024/01/29 14:01:18;;;;;;;20.73;9.75;;;16.20;62.90;;;;;;4218487;27;20086;-58
2024/01/29 14:03:59;;;;;;;14.73;9.68;;;16.20;62.80;;;;;;4213706;27;20055;-58